Time;durP1;ratioP1;P1;durP2;ratioP2;P2;SDS_P1;SDS_P2;PMS_P1;PMS_P2;Temp;Humidity;BMP_temperature;BMP_pressure;BME280_temperature;BME280_humidity;BME280_pressure;Samples;Min_cycle;Max_cycle;Signal;HPM_P1;HPM_P2
2022/10/15 00:01:05;;;;;;;17.70;13.70;;;;;;;;;;5024824;28;20030;-77
2022/10/15 00:03:35;;;;;;;20.40;14.32;;;;;;;;;;5006033;28;20064;-76
2022/10/15 00:06:06;;;;;;;16.90;14.48;;;;;;;;;;5026419;28;20514;-76
2022/10/15 00:08:33;;;;;;;19.83;15.18;;;;;;;;;;5022234;28;20064;-76
2022/10/15 00:11:12;;;;;;;23.92;15.05;;;;;;;;;;5013853;28;20044;-76
2022/10/15 00:13:39;;;;;;;23.58;15.48;;;;;;;;;;5024692;28;20041;-76
2022/10/15 00:16:08;;;;;;;23.75;15.88;;;;;;;;;;4977046;28;20488;-76
2022/10/15 00:18:35;;;;;;;18.15;14.48;;;;;;;;;;5009389;28;20041;-76
2022/10/15 00:21:04;;;;;;;18.40;13.77;;;;;;;;;;5007246;28;20034;-76
2022/10/15 00:23:32;;;;;;;22.42;14.75;;;;;;;;;;4999621;28;20052;-76
2022/10/15 00:26:09;;;;;;;20.88;14.30;;;;;;;;;;5006408;28;20128;-82
2022/10/15 00:28:37;;;;;;;18.52;12.73;;;;;;;;;;5005354;28;20045;-76
2022/10/15 00:31:06;;;;;;;15.82;13.23;;;;;;;;;;5021386;28;20064;-76
2022/10/15 00:33:33;;;;;;;15.77;13.45;;;;;;;;;;5023333;28;20487;-76
2022/10/15 00:36:06;;;;;;;18.58;13.88;;;;;;;;;;5010283;28;20045;-76
2022/10/15 00:38:34;;;;;;;23.33;15.20;;;;;;;;;;5009930;28;20533;-76
2022/10/15 00:41:01;;;;;;;25.83;17.15;;;;;;;;;;5003492;28;20117;-76
2022/10/15 00:43:41;;;;;;;18.40;14.13;;;;;;;;;;5010382;28;20044;-76
2022/10/15 00:46:29;;;;;;;19.30;13.38;;;;;;;;;;5028171;28;20099;-76
2022/10/15 00:49:23;;;;;;;23.95;15.15;;;;;;;;;;5003268;28;20042;-76
2022/10/15 00:51:56;;;;;;;19.25;14.30;;;;;;;;;;5018554;28;20049;-76
2022/10/15 00:54:25;;;;;;;17.30;13.48;;;;;;;;;;5019860;28;20041;-76
2022/10/15 00:56:53;;;;;;;16.02;14.00;;;;;;;;;;5025998;28;20517;-76
2022/10/15 00:59:23;;;;;;;15.48;13.05;;;;;;;;;;5005590;28;20041;-76
2022/10/15 01:01:52;;;;;;;17.47;13.37;;;;;;;;;;5029481;28;20449;-76
2022/10/15 01:04:20;;;;;;;16.33;12.40;;;;;;;;;;5005318;28;20738;-76
2022/10/15 01:06:49;;;;;;;16.67;12.27;;;;;;;;;;5012016;28;20465;-76
2022/10/15 01:09:16;;;;;;;16.95;12.60;;;;;;;;;;5012815;28;20068;-76
2022/10/15 01:11:47;;;;;;;17.20;12.93;;;;;;;;;;5013702;28;20037;-76
2022/10/15 01:14:15;;;;;;;16.42;13.32;;;;;;;;;;5024617;28;20068;-76
2022/10/15 01:17:01;;;;;;;16.05;12.68;;;;;;;;;;5013605;28;20061;-76
2022/10/15 01:19:29;;;;;;;19.48;13.27;;;;;;;;;;5033663;28;20402;-76
2022/10/15 01:22:15;;;;;;;18.95;13.27;;;;;;;;;;5031784;28;20063;-76
2022/10/15 01:24:59;;;;;;;15.18;12.82;;;;;;;;;;5016226;28;20045;-76
2022/10/15 01:27:35;;;;;;;16.10;12.20;;;;;;;;;;5027864;28;20037;-76
2022/10/15 01:30:21;;;;;;;14.75;13.05;;;;;;;;;;5011279;28;20103;-76
2022/10/15 01:32:50;;;;;;;14.93;13.38;;;;;;;;;;5010000;28;20042;-76
2022/10/15 01:35:18;;;;;;;19.08;13.18;;;;;;;;;;4993437;28;20380;-76
2022/10/15 01:37:55;;;;;;;21.17;13.30;;;;;;;;;;5010484;28;20126;-76
2022/10/15 01:40:26;;;;;;;17.50;11.88;;;;;;;;;;5028612;28;20167;-76
2022/10/15 01:42:58;;;;;;;15.95;13.35;;;;;;;;;;4992204;28;20049;-76
2022/10/15 01:45:45;;;;;;;16.58;13.00;;;;;;;;;;5003532;28;20108;-76
2022/10/15 01:48:22;;;;;;;18.38;12.85;;;;;;;;;;4996544;28;20487;-76
2022/10/15 01:50:52;;;;;;;15.05;12.43;;;;;;;;;;5010355;28;20091;-76
2022/10/15 01:53:25;;;;;;;15.20;13.38;;;;;;;;;;5007390;28;20049;-76
2022/10/15 01:55:55;;;;;;;12.73;10.45;;;;;;;;;;4996415;28;20037;-76
2022/10/15 01:58:24;;;;;;;14.27;11.48;;;;;;;;;;5009132;28;20147;-76
2022/10/15 02:00:53;;;;;;;20.67;12.55;;;;;;;;;;5010981;28;20048;-76
2022/10/15 02:03:20;;;;;;;14.23;12.10;;;;;;;;;;5002745;28;20053;-76
2022/10/15 02:05:50;;;;;;;15.68;12.13;;;;;;;;;;4993487;28;20140;-76
2022/10/15 02:08:33;;;;;;;14.68;11.50;;;;;;;;;;5013496;28;20049;-76
2022/10/15 02:11:05;;;;;;;16.67;12.70;;;;;;;;;;5028043;28;20136;-76
2022/10/15 02:13:35;;;;;;;15.30;11.02;;;;;;;;;;5009678;28;20045;-76
2022/10/15 02:16:17;;;;;;;12.50;10.95;;;;;;;;;;5023579;28;20049;-76
2022/10/15 02:18:57;;;;;;;17.25;11.32;;;;;;;;;;5027250;28;20041;-76
2022/10/15 02:21:44;;;;;;;19.33;12.32;;;;;;;;;;5030600;28;20175;-76
2022/10/15 02:24:17;;;;;;;19.17;12.05;;;;;;;;;;5003557;28;20038;-76
2022/10/15 02:26:44;;;;;;;17.33;12.27;;;;;;;;;;5007074;28;20045;-76
2022/10/15 02:29:16;;;;;;;18.48;12.77;;;;;;;;;;5009080;28;20514;-77
2022/10/15 02:31:49;;;;;;;14.57;12.38;;;;;;;;;;5006908;28;20467;-77
2022/10/15 02:34:19;;;;;;;23.27;12.55;;;;;;;;;;5007421;28;20057;-76
2022/10/15 02:36:46;;;;;;;13.48;11.63;;;;;;;;;;5009305;28;20037;-76
2022/10/15 02:39:25;;;;;;;21.83;13.70;;;;;;;;;;5029942;28;20046;-75
2022/10/15 02:41:53;;;;;;;16.50;12.07;;;;;;;;;;4989982;28;20049;-76
2022/10/15 02:44:20;;;;;;;19.35;12.57;;;;;;;;;;5010046;28;20132;-76
2022/10/15 02:46:48;;;;;;;16.88;11.90;;;;;;;;;;5010036;28;20049;-76
2022/10/15 02:49:17;;;;;;;19.42;12.18;;;;;;;;;;5027509;28;20045;-76
2022/10/15 02:51:44;;;;;;;16.45;12.40;;;;;;;;;;5008965;28;20045;-76
2022/10/15 02:54:15;;;;;;;18.63;11.30;;;;;;;;;;5008717;28;20038;-76
2022/10/15 02:56:46;;;;;;;17.35;11.32;;;;;;;;;;5010264;28;20042;-76
2022/10/15 02:59:14;;;;;;;16.10;10.90;;;;;;;;;;5010313;28;20050;-76
2022/10/15 03:01:41;;;;;;;20.45;11.50;;;;;;;;;;4991372;28;20519;-76
2022/10/15 03:04:09;;;;;;;18.98;12.32;;;;;;;;;;5007498;28;20507;-76
2022/10/15 03:06:36;;;;;;;14.90;11.63;;;;;;;;;;5036586;28;20095;-76
2022/10/15 03:09:04;;;;;;;19.02;11.93;;;;;;;;;;5030086;28;20045;-77
2022/10/15 03:11:32;;;;;;;24.10;12.57;;;;;;;;;;5043534;28;20632;-76
2022/10/15 03:14:01;;;;;;;15.68;10.95;;;;;;;;;;5008281;28;20100;-77
2022/10/15 03:16:30;;;;;;;18.58;12.00;;;;;;;;;;4996291;28;20040;-76
2022/10/15 03:18:57;;;;;;;21.00;11.75;;;;;;;;;;4998412;28;20053;-76
2022/10/15 03:21:25;;;;;;;14.98;12.27;;;;;;;;;;5014468;28;20041;-75
2022/10/15 03:23:59;;;;;;;16.35;13.70;;;;;;;;;;5013091;28;20045;-76
2022/10/15 03:26:26;;;;;;;19.42;14.07;;;;;;;;;;4997195;28;20462;-76
2022/10/15 03:28:54;;;;;;;19.77;12.48;;;;;;;;;;5011281;28;20099;-76
2022/10/15 03:31:32;;;;;;;18.40;12.10;;;;;;;;;;5011502;28;20045;-76
2022/10/15 03:34:02;;;;;;;20.42;12.45;;;;;;;;;;5013128;28;20495;-75
2022/10/15 03:36:30;;;;;;;17.33;12.23;;;;;;;;;;5007445;28;20030;-76
2022/10/15 03:38:59;;;;;;;19.27;12.48;;;;;;;;;;5023844;28;20053;-75
2022/10/15 03:41:26;;;;;;;26.67;12.00;;;;;;;;;;5018389;28;20045;-75
2022/10/15 03:43:54;;;;;;;20.80;13.43;;;;;;;;;;4991208;28;20049;-74
2022/10/15 03:46:23;;;;;;;20.95;14.27;;;;;;;;;;5010090;28;20041;-75
2022/10/15 03:48:52;;;;;;;29.35;14.25;;;;;;;;;;5006633;28;20054;-74
2022/10/15 03:51:19;;;;;;;21.52;13.70;;;;;;;;;;5017399;28;20128;-74
2022/10/15 03:53:58;;;;;;;20.08;13.93;;;;;;;;;;5010280;28;20454;-75
2022/10/15 03:56:25;;;;;;;25.50;13.82;;;;;;;;;;5020543;28;20041;-75
2022/10/15 03:58:59;;;;;;;26.33;14.82;;;;;;;;;;5027897;28;20057;-75
2022/10/15 04:01:27;;;;;;;23.08;13.38;;;;;;;;;;4998748;28;20120;-76
2022/10/15 04:03:55;;;;;;;23.77;13.68;;;;;;;;;;5007005;28;20046;-75
2022/10/15 04:06:24;;;;;;;25.48;13.60;;;;;;;;;;5012379;28;20091;-74
2022/10/15 04:08:52;;;;;;;29.83;15.15;;;;;;;;;;4997789;28;20069;-75
2022/10/15 04:11:23;;;;;;;29.27;14.90;;;;;;;;;;5005326;28;21145;-75
2022/10/15 04:14:02;;;;;;;27.33;15.02;;;;;;;;;;5013563;28;20096;-75
2022/10/15 04:16:32;;;;;;;33.50;16.48;;;;;;;;;;4992426;28;20462;-75
2022/10/15 04:19:05;;;;;;;27.80;15.88;;;;;;;;;;5010203;28;20045;-75
2022/10/15 04:21:37;;;;;;;27.48;16.42;;;;;;;;;;4991642;28;20475;-75
2022/10/15 04:24:05;;;;;;;17.52;12.55;;;;;;;;;;4996386;28;20119;-76
2022/10/15 04:26:36;;;;;;;31.17;16.27;;;;;;;;;;5016056;28;20069;-76
2022/10/15 04:29:03;;;;;;;32.40;17.95;;;;;;;;;;5006354;28;20338;-75
2022/10/15 04:31:32;;;;;;;34.50;16.60;;;;;;;;;;5006838;28;20041;-75
2022/10/15 04:34:01;;;;;;;39.05;16.60;;;;;;;;;;5012361;28;20494;-76
2022/10/15 04:36:28;;;;;;;31.35;16.13;;;;;;;;;;5007620;28;20121;-76
2022/10/15 04:39:07;;;;;;;29.02;14.93;;;;;;;;;;5013853;28;20068;-76
2022/10/15 04:41:42;;;;;;;36.60;15.65;;;;;;;;;;5012171;28;20474;-76
2022/10/15 04:44:26;;;;;;;34.45;16.38;;;;;;;;;;5013556;28;20049;-76
2022/10/15 04:46:56;;;;;;;34.23;16.50;;;;;;;;;;5006471;28;20123;-76
2022/10/15 04:49:31;;;;;;;43.33;16.67;;;;;;;;;;5003378;28;20296;-76
2022/10/15 04:52:01;;;;;;;20.13;12.88;;;;;;;;;;5010952;28;20077;-76
2022/10/15 04:54:34;;;;;;;27.73;14.48;;;;;;;;;;4997756;28;20470;-76
2022/10/15 04:57:04;;;;;;;34.83;16.92;;;;;;;;;;5014921;28;20129;-76
2022/10/15 04:59:31;;;;;;;29.13;16.20;;;;;;;;;;5000323;28;20041;-76
2022/10/15 05:02:19;;;;;;;28.73;15.65;;;;;;;;;;5016163;28;20052;-76
2022/10/15 05:04:54;;;;;;;36.88;17.45;;;;;;;;;;4999726;28;20069;-76
2022/10/15 05:07:22;;;;;;;32.88;17.08;;;;;;;;;;5038031;28;20053;-76
2022/10/15 05:09:51;;;;;;;34.83;17.10;;;;;;;;;;5046373;28;20049;-76
2022/10/15 05:12:19;;;;;;;28.70;16.83;;;;;;;;;;5019863;28;20245;-76
2022/10/15 05:14:47;;;;;;;40.63;17.83;;;;;;;;;;5005028;28;20042;-77
2022/10/15 05:17:20;;;;;;;30.17;15.90;;;;;;;;;;5028138;28;20119;-77
2022/10/15 05:19:48;;;;;;;39.20;16.88;;;;;;;;;;5025461;28;20048;-77
2022/10/15 05:22:20;;;;;;;35.78;17.15;;;;;;;;;;5029062;28;20060;-77
2022/10/15 05:24:57;;;;;;;36.88;17.30;;;;;;;;;;5028624;28;20128;-77
2022/10/15 05:27:27;;;;;;;32.40;16.67;;;;;;;;;;5023261;28;20054;-78
2022/10/15 05:29:55;;;;;;;37.60;15.90;;;;;;;;;;5025490;28;20055;-78
2022/10/15 05:32:29;;;;;;;44.53;17.60;;;;;;;;;;5025564;28;20064;-78
2022/10/15 05:34:56;;;;;;;46.13;18.63;;;;;;;;;;5032336;28;20044;-77
2022/10/15 05:37:33;;;;;;;44.72;17.63;;;;;;;;;;5013976;28;20060;-77
2022/10/15 05:40:00;;;;;;;42.28;17.95;;;;;;;;;;5025653;28;20052;-78
2022/10/15 05:45:24;;;;;;;47.50;18.98;;;;;;;;;;4986933;28;20062;-80
2022/10/15 05:47:58;;;;;;;34.00;15.25;;;;;;;;;;4975425;28;20446;-81
2022/10/15 05:50:31;;;;;;;35.55;17.17;;;;;;;;;;4985099;28;20129;-81
2022/10/15 05:53:25;;;;;;;44.53;18.13;;;;;;;;;;4974595;28;20034;-80
2022/10/15 05:56:07;;;;;;;40.72;18.77;;;;;;;;;;4977284;28;20145;-80
2022/10/15 05:59:03;;;;;;;51.45;21.08;;;;;;;;;;4972823;28;20042;-80
2022/10/15 06:01:56;;;;;;;48.03;20.15;;;;;;;;;;4979842;28;20459;-80
2022/10/15 06:04:46;;;;;;;40.05;20.08;;;;;;;;;;4972564;28;20788;-81
2022/10/15 06:07:24;;;;;;;43.70;19.08;;;;;;;;;;4975559;28;20520;-80
2022/10/15 06:09:53;;;;;;;40.70;17.73;;;;;;;;;;4980221;28;20054;-81
2022/10/15 06:12:24;;;;;;;37.42;17.85;;;;;;;;;;4992725;28;20051;-81
2022/10/15 06:15:03;;;;;;;31.77;17.85;;;;;;;;;;4977024;28;20054;-80
2022/10/15 06:17:33;;;;;;;41.78;19.10;;;;;;;;;;4996042;28;20422;-81
2022/10/15 06:20:35;;;;;;;35.75;17.33;;;;;;;;;;4993962;28;20122;-81
2022/10/15 06:23:32;;;;;;;21.10;12.38;;;;;;;;;;4995395;28;20065;-81
2022/10/15 06:26:36;;;;;;;30.05;14.30;;;;;;;;;;4964812;28;20133;-80
2022/10/15 06:29:27;;;;;;;33.75;14.40;;;;;;;;;;4998320;28;20118;-80
2022/10/15 06:32:15;;;;;;;32.90;13.95;;;;;;;;;;4978138;28;20528;-81
2022/10/15 06:35:03;;;;;;;24.92;12.85;;;;;;;;;;4995879;28;20069;-81
2022/10/15 06:37:38;;;;;;;33.17;13.30;;;;;;;;;;4981084;28;20042;-81
2022/10/15 06:40:53;;;;;;;26.35;12.35;;;;;;;;;;4983530;28;20120;-80
2022/10/15 06:43:30;;;;;;;26.42;12.57;;;;;;;;;;4981096;28;20041;-81
2022/10/15 06:46:10;;;;;;;25.48;11.48;;;;;;;;;;4978216;28;20073;-81
2022/10/15 06:49:08;;;;;;;;;;;;;;;;;;4976094;28;20197;-79
2022/10/15 06:52:27;;;;;;;26.58;10.88;;;;;;;;;;4976489;28;19929;-79
2022/10/15 06:55:19;;;;;;;14.45;8.30;;;;;;;;;;4965667;28;20574;-80
2022/10/15 06:58:13;;;;;;;18.17;8.98;;;;;;;;;;4966816;28;20065;-79
2022/10/15 07:00:59;;;;;;;20.58;10.43;;;;;;;;;;4968408;28;20051;-79
2022/10/15 07:03:37;;;;;;;24.02;10.50;;;;;;;;;;5002443;28;20129;-81
2022/10/15 07:06:08;;;;;;;18.80;9.65;;;;;;;;;;5009760;28;20599;-78
2022/10/15 07:08:40;;;;;;;28.70;11.50;;;;;;;;;;4977221;28;20046;-80
2022/10/15 07:11:14;;;;;;;23.95;10.85;;;;;;;;;;4986305;28;20042;-80
2022/10/15 07:13:43;;;;;;;22.42;9.85;;;;;;;;;;4985811;28;20647;-80
2022/10/15 07:16:11;;;;;;;26.98;11.50;;;;;;;;;;4979887;28;20511;-79
2022/10/15 07:18:39;;;;;;;25.75;11.30;;;;;;;;;;4982147;28;20069;-79
2022/10/15 07:21:07;;;;;;;25.13;11.95;;;;;;;;;;5004503;28;20048;-80
2022/10/15 07:23:38;;;;;;;25.83;10.85;;;;;;;;;;5003682;28;20042;-79
2022/10/15 07:26:05;;;;;;;19.20;10.27;;;;;;;;;;4970554;28;20073;-79
2022/10/15 07:28:32;;;;;;;26.88;12.60;;;;;;;;;;4980638;28;20042;-79
2022/10/15 07:31:04;;;;;;;23.50;12.15;;;;;;;;;;4985434;28;20050;-79
2022/10/15 07:33:33;;;;;;;23.25;11.82;;;;;;;;;;4991898;28;20073;-79
2022/10/15 07:36:08;;;;;;;28.30;12.32;;;;;;;;;;4997475;28;20038;-79
2022/10/15 07:38:35;;;;;;;17.23;10.07;;;;;;;;;;4995519;28;20092;-80
2022/10/15 07:41:03;;;;;;;17.58;10.20;;;;;;;;;;5001943;28;20068;-80
2022/10/15 07:43:31;;;;;;;18.02;9.32;;;;;;;;;;5009621;28;20105;-81
2022/10/15 07:45:59;;;;;;;17.90;10.52;;;;;;;;;;4996144;28;20070;-80
2022/10/15 07:48:26;;;;;;;14.13;8.93;;;;;;;;;;5015338;28;20048;-80
2022/10/15 07:50:54;;;;;;;17.30;9.20;;;;;;;;;;5002754;28;20137;-80
2022/10/15 07:53:23;;;;;;;22.65;11.00;;;;;;;;;;4979130;28;20042;-80
2022/10/15 07:55:58;;;;;;;17.42;10.27;;;;;;;;;;4985250;28;20406;-80
2022/10/15 07:58:30;;;;;;;17.20;8.70;;;;;;;;;;4994435;28;20046;-80
2022/10/15 08:01:01;;;;;;;17.40;9.18;;;;;;;;;;4992794;28;20092;-80
2022/10/15 08:03:29;;;;;;;12.70;8.35;;;;;;;;;;4983566;28;20074;-80
2022/10/15 08:05:59;;;;;;;15.23;7.65;;;;;;;;;;4974571;28;20078;-81
2022/10/15 08:08:29;;;;;;;16.85;9.25;;;;;;;;;;4982455;28;20431;-81
2022/10/15 08:10:57;;;;;;;16.02;9.73;;;;;;;;;;4954868;28;20103;-81
2022/10/15 08:13:25;;;;;;;15.52;8.23;;;;;;;;;;4980703;28;20108;-80
2022/10/15 08:15:54;;;;;;;14.75;8.18;;;;;;;;;;4960840;28;20135;-81
2022/10/15 08:18:29;;;;;;;14.63;8.00;;;;;;;;;;4974650;28;20046;-81
2022/10/15 08:21:00;;;;;;;12.70;7.75;;;;;;;;;;4943774;28;20077;-81
2022/10/15 08:23:29;;;;;;;18.65;7.93;;;;;;;;;;5007362;22;20376;-81
2022/10/15 08:26:00;;;;;;;15.00;7.70;;;;;;;;;;5049442;28;20103;-80
2022/10/15 08:28:28;;;;;;;16.55;7.63;;;;;;;;;;5025404;28;20087;-81
2022/10/15 08:30:59;;;;;;;16.42;7.90;;;;;;;;;;5036417;28;20037;-81
2022/10/15 08:33:32;;;;;;;12.82;7.68;;;;;;;;;;5039002;28;20500;-82
2022/10/15 08:36:00;;;;;;;10.10;6.38;;;;;;;;;;5023151;28;20057;-81
2022/10/15 08:38:27;;;;;;;11.15;7.20;;;;;;;;;;5017812;28;20049;-81
2022/10/15 08:40:55;;;;;;;10.40;6.40;;;;;;;;;;5025209;28;20050;-81
2022/10/15 08:43:40;;;;;;;11.07;6.85;;;;;;;;;;5044025;28;20049;-82
2022/10/15 08:46:16;;;;;;;21.30;16.40;;;;;;;;;;5021663;28;20490;-81
2022/10/15 08:48:49;;;;;;;29.58;23.23;;;;;;;;;;5020462;28;20042;-81
2022/10/15 08:51:19;;;;;;;54.10;39.92;;;;;;;;;;5037529;28;20049;-82
2022/10/15 08:53:49;;;;;;;59.30;38.70;;;;;;;;;;5016608;28;20072;-81
2022/10/15 08:56:35;;;;;;;39.08;29.73;;;;;;;;;;5034695;28;20112;-80
2022/10/15 08:59:16;;;;;;;20.90;14.40;;;;;;;;;;5016148;28;20084;-82
2022/10/15 09:01:46;;;;;;;9.77;7.43;;;;;;;;;;5007962;28;20049;-81
2022/10/15 09:04:17;;;;;;;18.90;10.77;;;;;;;;;;5021689;28;20069;-81
2022/10/15 09:06:45;;;;;;;14.52;8.60;;;;;;;;;;5002718;28;20052;-81
2022/10/15 09:09:16;;;;;;;9.23;6.85;;;;;;;;;;5001125;28;20041;-80
2022/10/15 09:11:46;;;;;;;8.57;6.15;;;;;;;;;;5012729;28;20125;-80
2022/10/15 09:14:15;;;;;;;11.07;6.03;;;;;;;;;;5004209;28;20385;-80
2022/10/15 09:16:44;;;;;;;7.13;5.35;;;;;;;;;;5002354;28;20060;-82
2022/10/15 09:19:19;;;;;;;6.90;5.10;;;;;;;;;;5007354;28;20041;-80
2022/10/15 09:21:47;;;;;;;10.93;5.72;;;;;;;;;;5023032;28;20037;-80
2022/10/15 09:24:22;;;;;;;10.60;5.85;;;;;;;;;;5022873;28;20376;-79
2022/10/15 09:27:01;;;;;;;9.30;5.55;;;;;;;;;;5017973;28;20128;-81
2022/10/15 09:29:34;;;;;;;12.73;6.90;;;;;;;;;;5040076;28;20253;-81
2022/10/15 09:32:05;;;;;;;8.80;6.22;;;;;;;;;;5019058;28;20042;-81
2022/10/15 09:34:44;;;;;;;8.95;6.43;;;;;;;;;;5004501;28;20053;-80
2022/10/15 09:37:19;;;;;;;10.05;6.13;;;;;;;;;;5009435;28;20429;-82
2022/10/15 09:39:59;;;;;;;8.35;5.93;;;;;;;;;;5014787;28;20057;-82
2022/10/15 09:42:31;;;;;;;8.65;5.93;;;;;;;;;;5004068;28;20057;-81
2022/10/15 09:45:01;;;;;;;10.25;6.53;;;;;;;;;;5018959;28;20144;-81
2022/10/15 09:47:31;;;;;;;6.70;5.25;;;;;;;;;;5026048;28;20037;-81
2022/10/15 09:50:01;;;;;;;;;;;;;;;;;;5018066;28;20489;-81
2022/10/15 09:52:44;;;;;;;10.10;5.28;;;;;;;;;;5031786;28;19964;-81
2022/10/15 09:55:30;;;;;;;7.50;6.18;;;;;;;;;;5033379;28;20105;-81
2022/10/15 09:58:01;;;;;;;20.95;9.50;;;;;;;;;;5034913;28;20045;-82
2022/10/15 10:00:51;;;;;;;9.07;6.28;;;;;;;;;;5013074;28;20057;-82
2022/10/15 10:03:19;;;;;;;12.52;6.75;;;;;;;;;;5030953;28;20393;-82
2022/10/15 10:05:50;;;;;;;81.13;43.30;;;;;;;;;;5027242;28;20045;-83
2022/10/15 10:08:21;;;;;;;37.47;27.58;;;;;;;;;;5026084;28;20404;-81
2022/10/15 10:11:00;;;;;;;12.75;10.07;;;;;;;;;;5022064;28;20037;-82
2022/10/15 10:13:30;;;;;;;13.82;9.13;;;;;;;;;;5036046;28;20096;-82
2022/10/15 10:16:02;;;;;;;11.60;7.95;;;;;;;;;;5038542;28;20101;-81
2022/10/15 10:18:31;;;;;;;9.52;7.82;;;;;;;;;;5019437;28;20253;-82
2022/10/15 10:21:00;;;;;;;10.77;7.95;;;;;;;;;;5022305;28;20046;-82
2022/10/15 10:23:33;;;;;;;10.85;8.43;;;;;;;;;;5008521;28;20037;-83
2022/10/15 10:26:09;;;;;;;12.35;9.32;;;;;;;;;;5018511;28;20529;-83
2022/10/15 10:28:45;;;;;;;7.97;6.47;;;;;;;;;;5019807;28;20045;-81
2022/10/15 10:31:13;;;;;;;8.10;5.60;;;;;;;;;;5002894;28;20049;-81
2022/10/15 10:33:44;;;;;;;6.40;4.68;;;;;;;;;;5018973;28;20067;-82
2022/10/15 10:36:19;;;;;;;6.95;4.25;;;;;;;;;;5019419;28;20077;-83
2022/10/15 10:39:02;;;;;;;5.97;5.18;;;;;;;;;;5015878;28;20053;-82
2022/10/15 10:41:49;;;;;;;4.95;4.20;;;;;;;;;;5019153;28;20048;-82
2022/10/15 10:44:21;;;;;;;4.18;3.13;;;;;;;;;;5009606;28;20042;-83
2022/10/15 10:47:01;;;;;;;4.15;3.60;;;;;;;;;;5020280;28;20046;-82
2022/10/15 10:49:36;;;;;;;5.97;4.20;;;;;;;;;;5020107;28;20145;-82
2022/10/15 10:52:18;;;;;;;5.07;4.15;;;;;;;;;;5022914;28;20045;-83
2022/10/15 10:54:46;;;;;;;6.70;4.55;;;;;;;;;;5021275;28;21144;-82
2022/10/15 10:57:15;;;;;;;4.97;3.80;;;;;;;;;;5014013;28;20517;-83
2022/10/15 10:59:50;;;;;;;6.00;3.90;;;;;;;;;;5016538;28;20072;-84
2022/10/15 11:02:17;;;;;;;5.07;4.43;;;;;;;;;;5018670;28;20049;-83
2022/10/15 11:04:45;;;;;;;6.13;4.05;;;;;;;;;;5003251;28;20068;-84
2022/10/15 11:07:41;;;;;;;6.00;4.03;;;;;;;;;;5021193;28;20080;-84
2022/10/15 11:10:23;;;;;;;5.65;4.28;;;;;;;;;;5037172;28;20051;-83
2022/10/15 11:12:51;;;;;;;8.27;4.03;;;;;;;;;;5020204;28;20053;-85
2022/10/15 11:15:18;;;;;;;9.50;4.53;;;;;;;;;;5017771;28;20045;-85
2022/10/15 11:17:52;;;;;;;7.03;3.97;;;;;;;;;;5014894;28;20516;-84
2022/10/15 11:20:21;;;;;;;10.95;3.38;;;;;;;;;;5015892;28;20045;-83
2022/10/15 11:23:27;;;;;;;5.78;3.53;;;;;;;;;;5001342;28;20302;-83
2022/10/15 11:26:01;;;;;;;4.70;4.18;;;;;;;;;;5015104;28;20049;-83
2022/10/15 11:28:37;;;;;;;5.15;4.13;;;;;;;;;;5011895;28;20044;-83
2022/10/15 11:31:29;;;;;;;3.20;2.97;;;;;;;;;;5016772;28;20046;-84
2022/10/15 11:34:17;;;;;;;3.83;3.42;;;;;;;;;;5014400;28;20069;-85
2022/10/15 11:36:58;;;;;;;5.05;3.05;;;;;;;;;;5017621;28;20460;-84
2022/10/15 11:39:29;;;;;;;4.15;3.08;;;;;;;;;;5023289;28;20046;-83
2022/10/15 11:42:06;;;;;;;5.55;3.75;;;;;;;;;;5003113;28;20390;-84
2022/10/15 11:44:36;;;;;;;5.18;3.90;;;;;;;;;;5016460;28;20040;-84
2022/10/15 11:47:14;;;;;;;3.47;3.20;;;;;;;;;;5049032;23;20142;-78
2022/10/15 11:49:48;;;;;;;3.67;3.15;;;;;;;;;;5007676;28;20532;-79
2022/10/15 11:52:18;;;;;;;5.43;3.00;;;;;;;;;;5008697;28;20068;-80
2022/10/15 11:55:08;;;;;;;3.05;2.75;;;;;;;;;;5044533;28;20063;-78
2022/10/15 11:57:39;;;;;;;2.42;2.22;;;;;;;;;;5006622;28;20124;-78
2022/10/15 12:00:06;;;;;;;5.63;3.55;;;;;;;;;;5002635;28;20050;-78
2022/10/15 12:02:38;;;;;;;3.92;2.83;;;;;;;;;;5026498;28;20427;-78
2022/10/15 12:05:14;;;;;;;3.83;2.83;;;;;;;;;;5023052;28;20037;-78
2022/10/15 12:07:43;;;;;;;3.40;3.10;;;;;;;;;;5008219;28;20125;-78
2022/10/15 12:10:11;;;;;;;5.07;4.43;;;;;;;;;;5024919;28;20034;-78
2022/10/15 12:12:44;;;;;;;9.00;7.38;;;;;;;;;;5028282;28;20038;-78
2022/10/15 12:15:12;;;;;;;6.60;4.88;;;;;;;;;;5023182;28;20573;-78
2022/10/15 12:17:50;;;;;;;4.68;3.95;;;;;;;;;;5028112;28;20144;-81
2022/10/15 12:20:22;;;;;;;3.85;3.47;;;;;;;;;;5008141;28;20042;-78
2022/10/15 12:22:51;;;;;;;5.18;3.97;;;;;;;;;;5029643;28;20037;-78
2022/10/15 12:25:34;;;;;;;7.75;4.15;;;;;;;;;;5008456;28;20076;-78
2022/10/15 12:28:07;;;;;;;6.38;3.65;;;;;;;;;;5028046;28;20041;-78
2022/10/15 12:30:36;;;;;;;3.33;3.00;;;;;;;;;;5009485;28;20037;-77
2022/10/15 12:33:22;;;;;;;4.78;3.70;;;;;;;;;;5010532;28;20132;-78
2022/10/15 12:35:54;;;;;;;2.78;2.47;;;;;;;;;;5026025;28;20462;-79
2022/10/15 12:38:26;;;;;;;2.47;2.28;;;;;;;;;;5025216;28;20526;-78
2022/10/15 12:40:58;;;;;;;2.78;2.47;;;;;;;;;;5026273;28;20047;-78
2022/10/15 12:43:27;;;;;;;2.60;2.40;;;;;;;;;;5026772;28;20355;-78
2022/10/15 12:45:56;;;;;;;5.28;2.28;;;;;;;;;;5009732;28;20072;-78
2022/10/15 12:48:24;;;;;;;8.35;2.85;;;;;;;;;;5018253;28;20052;-81
2022/10/15 12:51:11;;;;;;;2.53;2.33;;;;;;;;;;5029957;28;20087;-77
2022/10/15 12:53:41;;;;;;;2.15;1.95;;;;;;;;;;5018803;28;20403;-76
2022/10/15 12:56:12;;;;;;;2.35;2.10;;;;;;;;;;4996555;28;20058;-78
2022/10/15 12:58:46;;;;;;;4.40;2.20;;;;;;;;;;5026577;28;20515;-78
2022/10/15 13:01:13;;;;;;;2.60;2.38;;;;;;;;;;5030950;28;20045;-77
2022/10/15 13:03:52;;;;;;;3.88;2.20;;;;;;;;;;5026484;28;20068;-79
2022/10/15 13:06:22;;;;;;;2.53;2.00;;;;;;;;;;5015484;28;20034;-77
2022/10/15 13:09:05;;;;;;;4.22;2.22;;;;;;;;;;5020159;28;20045;-77
2022/10/15 13:11:35;;;;;;;2.13;1.92;;;;;;;;;;5024276;28;20511;-77
2022/10/15 13:14:09;;;;;;;2.05;1.92;;;;;;;;;;5018967;28;20046;-78
2022/10/15 13:16:36;;;;;;;3.80;2.00;;;;;;;;;;5019421;28;20138;-77
2022/10/15 13:19:04;;;;;;;2.83;2.40;;;;;;;;;;5003335;28;20055;-77
2022/10/15 13:21:51;;;;;;;4.63;2.00;;;;;;;;;;5016901;28;20125;-78
2022/10/15 13:24:19;;;;;;;4.05;1.73;;;;;;;;;;5024523;28;20046;-78
2022/10/15 13:26:47;;;;;;;2.08;1.95;;;;;;;;;;5004147;28;20033;-77
2022/10/15 13:29:17;;;;;;;4.18;1.92;;;;;;;;;;5015884;28;20042;-78
2022/10/15 13:31:46;;;;;;;2.60;2.25;;;;;;;;;;5006311;28;20132;-77
2022/10/15 13:34:17;;;;;;;2.35;2.17;;;;;;;;;;5022013;28;20100;-75
2022/10/15 13:36:46;;;;;;;3.58;2.35;;;;;;;;;;5020743;28;20356;-77
2022/10/15 13:39:29;;;;;;;2.85;2.00;;;;;;;;;;5008265;28;20107;-77
2022/10/15 13:42:19;;;;;;;5.22;2.10;;;;;;;;;;5022961;28;20124;-77
2022/10/15 13:44:57;;;;;;;2.83;2.03;;;;;;;;;;5003659;28;20065;-78
2022/10/15 13:47:45;;;;;;;3.33;2.08;;;;;;;;;;5001902;28;20403;-79
2022/10/15 13:50:26;;;;;;;3.05;2.22;;;;;;;;;;5004050;28;20069;-77
2022/10/15 13:52:56;;;;;;;2.23;1.80;;;;;;;;;;5025220;28;20064;-77
2022/10/15 13:55:25;;;;;;;3.33;1.98;;;;;;;;;;5020961;28;20328;-78
2022/10/15 13:57:55;;;;;;;2.15;2.00;;;;;;;;;;4999166;28;20041;-77
2022/10/15 14:00:26;;;;;;;6.17;2.57;;;;;;;;;;5024483;28;20174;-77
2022/10/15 14:03:06;;;;;;;3.47;3.15;;;;;;;;;;4989310;28;20053;-74
2022/10/15 14:05:34;;;;;;;4.43;3.60;;;;;;;;;;5027153;28;20502;-76
2022/10/15 14:08:01;;;;;;;3.88;3.38;;;;;;;;;;5018447;28;21614;-78
2022/10/15 14:10:28;;;;;;;4.50;3.22;;;;;;;;;;5020579;28;20553;-77
2022/10/15 14:12:55;;;;;;;9.27;4.38;;;;;;;;;;5006194;28;20123;-76
2022/10/15 14:15:42;;;;;;;6.72;5.30;;;;;;;;;;5015498;28;20140;-78
2022/10/15 14:18:10;;;;;;;12.82;5.35;;;;;;;;;;4970162;28;20049;-78
2022/10/15 14:20:38;;;;;;;10.95;5.00;;;;;;;;;;5017699;28;20045;-77
2022/10/15 14:23:05;;;;;;;3.67;3.25;;;;;;;;;;4998734;28;20202;-78
2022/10/15 14:25:32;;;;;;;7.20;4.15;;;;;;;;;;5019030;28;20413;-77
2022/10/15 14:28:00;;;;;;;8.75;4.03;;;;;;;;;;5005038;28;20511;-76
2022/10/15 14:30:32;;;;;;;7.32;4.15;;;;;;;;;;4983618;28;20060;-76
2022/10/15 14:33:00;;;;;;;4.22;3.30;;;;;;;;;;4977793;28;20054;-77
2022/10/15 14:35:31;;;;;;;5.28;3.30;;;;;;;;;;5002052;28;20136;-78
2022/10/15 14:37:59;;;;;;;;;;;;;;;;;;4994993;28;20079;-77
2022/10/15 14:40:26;;;;;;;7.32;4.13;;;;;;;;;;5000181;28;19960;-78
2022/10/15 14:43:02;;;;;;;9.30;4.35;;;;;;;;;;5001025;28;20065;-76
2022/10/15 14:45:31;;;;;;;9.93;4.80;;;;;;;;;;5013324;28;20489;-77
2022/10/15 14:48:01;;;;;;;8.48;4.28;;;;;;;;;;5001617;28;20164;-76
2022/10/15 14:50:33;;;;;;;6.32;4.15;;;;;;;;;;5005786;28;20153;-76
2022/10/15 14:53:06;;;;;;;5.18;4.47;;;;;;;;;;4987653;28;20045;-78
2022/10/15 14:55:39;;;;;;;4.47;3.55;;;;;;;;;;5024874;28;20037;-76
2022/10/15 14:58:11;;;;;;;5.07;4.13;;;;;;;;;;4998452;28;20393;-76
2022/10/15 15:00:40;;;;;;;5.35;3.85;;;;;;;;;;5026088;28;20132;-78
2022/10/15 15:03:07;;;;;;;5.03;4.15;;;;;;;;;;4994768;28;20057;-77
2022/10/15 15:05:53;;;;;;;10.35;6.50;;;;;;;;;;5013222;28;20057;-75
2022/10/15 15:08:21;;;;;;;5.15;3.92;;;;;;;;;;5011452;28;20149;-77